createdAt,value
2023-04-21T00:00:46.261Z,99741.22
2023-04-21T00:03:34.745Z,99731.78
2023-04-21T00:06:24.885Z,99736.88
2023-04-21T00:09:12.658Z,99741.03
2023-04-21T00:12:00.471Z,99716.88
2023-04-21T00:14:48.245Z,99743.09
2023-04-21T00:17:36.060Z,99728.34
2023-04-21T00:20:24.418Z,99695.94
2023-04-21T00:23:12.284Z,99660.38
2023-04-21T00:26:03.107Z,99734.09
2023-04-21T00:28:50.860Z,99725.13
2023-04-21T00:31:38.658Z,99742.09
2023-04-21T00:34:26.293Z,99744.13
2023-04-21T00:37:14.030Z,99735.41
2023-04-21T00:40:01.833Z,99729.34
2023-04-21T00:42:49.673Z,99745.44
2023-04-21T00:45:37.337Z,99750.22
2023-04-21T00:48:25.200Z,99705.06
2023-04-21T00:51:12.921Z,99742.13
2023-04-21T00:54:02.886Z,99740.34
2023-04-21T00:56:50.728Z,99706.50
2023-04-21T00:59:38.582Z,99730.59
2023-04-21T01:02:26.536Z,99738.38
2023-04-21T01:05:16.615Z,99709.91
2023-04-21T01:08:06.725Z,99741.63
2023-04-21T01:10:54.423Z,99743.06
2023-04-21T01:13:42.151Z,99711.03
2023-04-21T01:16:30.068Z,99738.31
2023-04-21T01:19:18.800Z,99748.88
2023-04-21T01:22:15.459Z,99714.69
2023-04-21T01:25:03.860Z,99740.09
2023-04-21T01:27:52.598Z,99733.50
2023-04-21T01:30:42.284Z,99713.25
2023-04-21T01:33:37.550Z,99725.69
2023-04-21T01:36:42.756Z,99736.63
2023-04-21T01:39:42.563Z,99735.97
2023-04-21T01:42:31.403Z,99730.28
2023-04-21T01:45:20.177Z,99739.66
2023-04-21T01:48:07.981Z,99744.28
2023-04-21T01:50:55.748Z,99692.94
2023-04-21T01:53:43.419Z,99728.28
2023-04-21T01:56:31.200Z,99743.47
2023-04-21T01:59:19.249Z,99732.72
2023-04-21T02:02:07.614Z,99749.31
2023-04-21T02:04:55.574Z,99716.81
2023-04-21T02:07:43.268Z,99744.50
2023-04-21T02:10:30.988Z,99736.72
2023-04-21T02:13:18.730Z,99709.50
2023-04-21T02:16:13.285Z,99736.13
2023-04-21T02:19:01.523Z,99738.09
2023-04-21T02:21:49.169Z,99719.13
2023-04-21T02:24:36.924Z,99734.66
2023-04-21T02:27:24.655Z,99740.97
2023-04-21T02:30:12.439Z,99727.81
2023-04-21T02:33:02.706Z,99733.75
2023-04-21T02:35:50.540Z,99730.75
2023-04-21T02:38:38.282Z,99741.09
2023-04-21T02:41:26.127Z,99733.34
2023-04-21T02:44:13.813Z,99701.19
2023-04-21T02:47:01.712Z,99738.91
2023-04-21T02:49:49.334Z,99744.59
2023-04-21T02:52:38.218Z,99753.13
2023-04-21T02:55:26.078Z,99736.72
2023-04-21T02:58:16.744Z,99739.47
2023-04-21T03:01:06.211Z,99749.31
2023-04-21T03:03:55.774Z,99723.47
2023-04-21T03:06:43.708Z,99729.31
2023-04-21T03:09:33.234Z,99744.41
2023-04-21T03:12:23.648Z,99733.59
2023-04-21T03:15:11.730Z,99746.41
2023-04-21T03:18:02.123Z,99704.59
2023-04-21T03:20:50.016Z,99729.19
2023-04-21T03:23:37.775Z,99751.53
2023-04-21T03:26:26.001Z,99744.69
2023-04-21T03:29:13.604Z,99742.53
2023-04-21T03:32:01.448Z,99728.34
2023-04-21T03:34:50.618Z,99758.25
2023-04-21T03:37:39.974Z,99700.00
2023-04-21T03:40:27.669Z,99750.00
2023-04-21T03:43:15.668Z,99757.97
2023-04-21T03:46:03.681Z,99750.88
2023-04-21T03:48:52.019Z,99740.94
2023-04-21T03:51:39.690Z,99750.31
2023-04-21T03:54:27.365Z,99750.69
2023-04-21T03:57:15.651Z,99771.06
2023-04-21T04:00:05.473Z,99767.25
2023-04-21T04:03:00.172Z,99752.50
2023-04-21T04:05:48.060Z,99784.63
2023-04-21T04:08:35.864Z,99762.13
2023-04-21T04:11:23.552Z,99777.25
2023-04-21T04:14:11.570Z,99778.69
2023-04-21T04:16:59.820Z,99785.06
2023-04-21T04:19:47.412Z,99779.59
2023-04-21T04:22:35.178Z,99764.56
2023-04-21T04:25:22.872Z,99787.88
2023-04-21T04:28:10.778Z,99782.09
2023-04-21T04:30:58.573Z,99770.34
2023-04-21T04:33:46.381Z,99801.53
2023-04-21T04:36:34.378Z,99792.16
2023-04-21T04:39:23.907Z,99803.19
2023-04-21T04:42:12.091Z,99806.59
2023-04-21T04:45:02.012Z,99804.81
2023-04-21T04:47:50.326Z,99809.63
2023-04-21T04:50:38.080Z,99784.06
2023-04-21T04:53:26.112Z,99802.78
2023-04-21T04:56:13.854Z,99792.38
2023-04-21T04:59:01.473Z,99795.88
2023-04-21T05:01:49.237Z,99785.44
2023-04-21T05:04:37.242Z,99789.34
2023-04-21T05:07:25.055Z,99799.03
2023-04-21T05:10:12.787Z,99791.97
2023-04-21T05:13:00.578Z,99795.03
2023-04-21T05:15:48.369Z,99793.81
2023-04-21T05:18:36.185Z,99792.91
2023-04-21T05:21:27.919Z,99783.78
2023-04-21T05:24:15.751Z,99796.03
2023-04-21T05:27:03.579Z,99785.81
2023-04-21T05:29:51.455Z,99775.84
2023-04-21T05:32:39.280Z,99801.25
2023-04-21T05:35:27.162Z,99804.66
2023-04-21T05:38:14.835Z,99775.81
2023-04-21T05:41:03.154Z,99775.09
2023-04-21T05:43:50.801Z,99801.66
2023-04-21T05:46:38.611Z,99795.25
2023-04-21T05:49:26.371Z,99788.91
2023-04-21T05:52:14.105Z,99795.63
2023-04-21T05:55:01.972Z,99801.91
2023-04-21T05:57:49.835Z,99805.91
2023-04-21T06:00:37.414Z,99786.75
2023-04-21T06:03:25.356Z,99809.00
2023-04-21T06:06:14.371Z,99809.31
2023-04-21T06:09:02.060Z,99764.03
2023-04-21T06:11:51.074Z,99799.59
2023-04-21T06:14:41.183Z,99801.66
2023-04-21T06:17:28.994Z,99803.22
2023-04-21T06:20:17.956Z,99803.97
2023-04-21T06:23:05.586Z,99804.44
2023-04-21T06:26:05.616Z,99810.06
2023-04-21T06:28:53.365Z,99816.38
2023-04-21T06:31:41.109Z,99811.97
2023-04-21T06:34:28.877Z,99796.84
2023-04-21T06:37:16.691Z,99819.13
2023-04-21T06:40:04.906Z,99822.78
2023-04-21T06:42:52.501Z,99804.00
2023-04-21T06:45:40.247Z,99826.03
2023-04-21T06:48:28.291Z,99823.34
2023-04-21T06:51:16.209Z,99826.31
2023-04-21T06:54:04.140Z,99829.38
2023-04-21T06:56:51.828Z,99822.28
2023-04-21T06:59:39.572Z,99838.91
2023-04-21T07:02:27.315Z,99833.06
2023-04-21T07:05:15.067Z,99831.22
2023-04-21T07:08:03.864Z,99837.69
2023-04-21T07:10:51.649Z,99841.03
2023-04-21T07:13:39.275Z,99837.50
2023-04-21T07:16:27.091Z,99796.53
2023-04-21T07:19:14.940Z,99845.81
2023-04-21T07:22:02.739Z,99851.81
2023-04-21T07:24:50.511Z,99844.66
2023-04-21T07:27:39.606Z,99850.59
2023-04-21T07:30:27.374Z,99849.97
2023-04-21T07:33:33.701Z,99827.50
2023-04-21T07:36:21.397Z,99827.13
2023-04-21T07:39:09.154Z,99842.75
2023-04-21T07:41:56.855Z,99839.03
2023-04-21T07:44:44.826Z,99796.16
2023-04-21T07:47:32.908Z,99849.84
2023-04-21T07:50:20.755Z,99829.06
2023-04-21T07:53:08.561Z,99854.47
2023-04-21T07:55:56.269Z,99773.06
2023-04-21T07:58:43.979Z,99846.41
2023-04-21T08:01:31.836Z,99851.09
2023-04-21T08:04:19.947Z,99843.91
2023-04-21T08:07:10.187Z,99813.66
2023-04-21T08:09:57.978Z,99827.44
2023-04-21T08:12:45.752Z,99822.94
2023-04-21T08:15:37.597Z,99846.81
2023-04-21T08:18:25.313Z,99842.56
2023-04-21T08:21:13.933Z,99818.22
2023-04-21T08:24:01.717Z,99843.28
2023-04-21T08:26:49.478Z,99815.31
2023-04-21T08:29:37.205Z,99851.25
2023-04-21T08:32:26.685Z,99850.09
2023-04-21T08:35:14.586Z,99836.41
2023-04-21T08:38:02.956Z,99821.59
2023-04-21T08:40:50.762Z,99830.00
2023-04-21T08:43:38.560Z,99827.97
2023-04-21T08:46:28.367Z,99836.84
2023-04-21T08:49:21.349Z,99847.13
2023-04-21T08:52:09.424Z,99839.50
2023-04-21T08:54:57.642Z,99833.28
2023-04-21T08:57:45.339Z,99815.44
2023-04-21T09:00:33.170Z,99826.94
2023-04-21T09:03:26.504Z,99830.84
2023-04-21T09:06:14.622Z,99801.88
2023-04-21T09:09:02.553Z,99838.97
2023-04-21T09:12:00.042Z,99844.03
2023-04-21T09:14:47.897Z,99832.84
2023-04-21T09:17:37.257Z,99814.50
2023-04-21T09:20:27.337Z,99834.75
2023-04-21T09:23:29.747Z,99828.72
2023-04-21T09:26:23.386Z,99804.44
2023-04-21T09:29:11.124Z,99821.53
2023-04-21T09:31:58.794Z,99807.00
2023-04-21T09:34:46.918Z,99795.47
2023-04-21T09:37:34.885Z,99792.84
2023-04-21T09:40:22.710Z,99775.97
2023-04-21T09:43:11.991Z,99809.56
2023-04-21T09:46:02.545Z,99769.72
2023-04-21T09:48:53.022Z,99733.38
2023-04-21T09:52:02.179Z,99798.66
2023-04-21T09:55:01.175Z,99773.75
2023-04-21T09:57:50.165Z,99803.28
2023-04-21T10:00:40.032Z,99782.22
2023-04-21T10:03:29.999Z,99794.16
2023-04-21T10:06:18.129Z,99793.25
2023-04-21T10:09:06.851Z,99792.63
2023-04-21T10:11:55.998Z,99786.19
2023-04-21T10:14:43.936Z,99780.66
2023-04-21T10:17:37.185Z,99773.00
2023-04-21T10:20:24.805Z,99783.94
2023-04-21T10:23:12.576Z,99795.25
2023-04-21T10:26:27.361Z,99789.38
2023-04-21T10:29:16.513Z,99774.78
2023-04-21T10:32:06.302Z,99773.78
2023-04-21T10:34:57.351Z,99777.06
2023-04-21T10:37:48.869Z,99736.72
2023-04-21T10:43:49.872Z,99765.16
2023-04-21T10:46:54.127Z,99773.50
2023-04-21T10:49:41.823Z,99757.53
2023-04-21T10:52:36.438Z,99768.94
2023-04-21T10:55:27.890Z,99765.75
2023-04-21T10:58:16.898Z,99756.06
2023-04-21T11:01:05.132Z,99779.72
2023-04-21T11:03:54.919Z,99753.53
2023-04-21T11:06:42.747Z,99718.66
2023-04-21T11:09:30.960Z,99750.44
2023-04-21T11:12:19.016Z,99754.69
2023-04-21T11:15:08.369Z,99754.53
2023-04-21T11:17:56.099Z,99750.00
2023-04-21T11:20:46.422Z,99720.72
2023-04-21T11:23:34.082Z,99727.13
2023-04-21T11:26:36.105Z,99745.50
2023-04-21T11:29:23.535Z,99742.03
2023-04-21T11:32:12.452Z,99730.56
2023-04-21T11:35:00.742Z,99748.56
2023-04-21T11:37:52.152Z,99720.19
2023-04-21T11:40:49.399Z,99736.25
2023-04-21T11:43:38.336Z,99737.59
2023-04-21T11:46:27.974Z,99735.28
2023-04-21T11:49:17.394Z,99752.75
2023-04-21T11:52:05.090Z,99718.00
2023-04-21T11:55:00.075Z,99708.78
2023-04-21T11:57:50.275Z,99723.28
2023-04-21T12:00:38.086Z,99728.84
2023-04-21T12:03:26.701Z,99728.63
2023-04-21T12:06:28.900Z,99726.19
2023-04-21T12:09:20.265Z,99728.47
2023-04-21T12:12:10.161Z,99703.53
2023-04-21T12:14:57.909Z,99699.78
2023-04-21T12:17:47.684Z,99706.84
2023-04-21T12:20:35.983Z,99684.38
2023-04-21T12:23:23.829Z,99704.47
2023-04-21T12:26:12.306Z,99691.31
2023-04-21T12:29:00.844Z,99720.28
2023-04-21T12:31:48.568Z,99693.19
2023-04-21T12:34:36.581Z,99699.22
2023-04-21T12:37:24.308Z,99717.25
2023-04-21T12:40:12.123Z,99682.81
2023-04-21T12:42:59.841Z,99704.84
2023-04-21T12:45:48.113Z,99712.94
2023-04-21T12:48:36.128Z,99687.34
2023-04-21T12:51:24.082Z,99699.22
2023-04-21T12:54:13.062Z,99705.75
2023-04-21T12:57:00.976Z,99696.63
2023-04-21T12:59:49.814Z,99691.44
2023-04-21T13:02:38.611Z,99691.56
2023-04-21T13:05:26.721Z,99698.66
2023-04-21T13:08:14.629Z,99690.06
2023-04-21T13:11:02.316Z,99670.19
2023-04-21T13:13:50.061Z,99683.50
2023-04-21T13:16:37.781Z,99691.28
2023-04-21T13:19:25.977Z,99686.03
2023-04-21T13:22:14.421Z,99686.88
2023-04-21T13:25:02.732Z,99681.31
2023-04-21T13:27:52.208Z,99695.09
2023-04-21T13:30:41.030Z,99696.16
2023-04-21T13:33:28.804Z,99639.94
2023-04-21T13:36:16.763Z,99684.41
2023-04-21T13:39:06.122Z,99694.59
2023-04-21T13:41:54.353Z,99646.31
2023-04-21T13:44:42.301Z,99642.03
2023-04-21T13:47:32.524Z,99647.16
2023-04-21T13:50:20.657Z,99703.91
2023-04-21T13:53:08.372Z,99671.88
2023-04-21T13:55:57.703Z,99691.47
2023-04-21T13:58:45.565Z,99701.59
2023-04-21T14:01:33.282Z,99703.53
2023-04-21T14:04:21.522Z,99705.75
2023-04-21T14:07:09.779Z,99712.28
2023-04-21T14:09:58.330Z,99694.72
2023-04-21T14:12:46.091Z,99600.53
2023-04-21T14:15:33.875Z,99689.69
2023-04-21T14:18:21.899Z,99685.03
2023-04-21T14:21:09.565Z,99641.16
2023-04-21T14:23:57.232Z,99671.38
2023-04-21T14:26:44.850Z,99666.84
2023-04-21T14:29:32.909Z,99679.56
2023-04-21T14:32:21.039Z,99675.63
2023-04-21T14:35:09.222Z,99676.94
2023-04-21T14:38:00.213Z,99677.28
2023-04-21T14:40:49.982Z,99667.03
2023-04-21T14:43:37.896Z,99654.16
2023-04-21T14:46:26.454Z,99674.25
2023-04-21T14:49:14.246Z,99685.00
2023-04-21T14:52:02.129Z,99643.72
2023-04-21T14:54:50.035Z,99646.63
2023-04-21T14:57:37.772Z,99653.19
2023-04-21T15:00:26.203Z,99679.06
2023-04-21T15:03:13.924Z,99646.16
2023-04-21T15:06:11.802Z,99667.50
2023-04-21T15:09:01.882Z,99626.44
2023-04-21T15:11:52.836Z,99667.88
2023-04-21T15:14:45.891Z,99643.53
2023-04-21T15:17:33.951Z,99669.72
2023-04-21T15:20:32.537Z,99678.88
2023-04-21T15:23:36.449Z,99642.47
2023-04-21T15:26:28.478Z,99654.03
2023-04-21T15:29:16.554Z,99648.75
2023-04-21T15:32:08.158Z,99678.25
2023-04-21T15:34:56.035Z,99675.84
2023-04-21T15:37:43.832Z,99665.22
2023-04-21T15:40:32.377Z,99663.41
2023-04-21T15:43:26.516Z,99662.03
2023-04-21T15:46:15.459Z,99635.09
2023-04-21T15:52:08.811Z,99657.06
2023-04-21T15:54:57.180Z,99663.44
2023-04-21T15:57:45.990Z,99686.28
2023-04-21T16:00:33.679Z,99675.16
2023-04-21T16:03:22.014Z,99658.16
2023-04-21T16:06:09.981Z,99671.25
2023-04-21T16:08:58.074Z,99649.06
2023-04-21T16:11:45.815Z,99604.44
2023-04-21T16:14:46.673Z,99678.28
2023-04-21T16:17:41.182Z,99665.91
2023-04-21T16:20:31.845Z,99680.81
2023-04-21T16:23:19.964Z,99677.50
2023-04-21T16:26:09.300Z,99670.59
2023-04-21T16:28:57.261Z,99693.59
2023-04-21T16:31:45.353Z,99631.47
2023-04-21T16:34:33.267Z,99704.19
2023-04-21T16:37:20.977Z,99688.50
2023-04-21T16:40:09.919Z,99710.78
2023-04-21T16:42:57.646Z,99704.09
2023-04-21T16:45:45.419Z,99714.69
2023-04-21T16:48:35.552Z,99658.22
2023-04-21T16:51:23.435Z,99698.38
2023-04-21T16:54:11.868Z,99715.16
2023-04-21T16:56:59.593Z,99729.56
2023-04-21T16:59:47.399Z,99731.28
2023-04-21T17:02:35.187Z,99722.31
2023-04-21T17:05:30.974Z,99702.88
2023-04-21T17:08:38.964Z,99721.56
2023-04-21T17:11:31.468Z,99737.09
2023-04-21T17:14:19.362Z,99745.13
2023-04-21T17:17:07.304Z,99723.69
2023-04-21T17:19:55.234Z,99734.81
2023-04-21T17:22:43.221Z,99737.59
2023-04-21T17:25:31.081Z,99731.25
2023-04-21T17:28:18.797Z,99735.25
2023-04-21T17:31:15.312Z,99717.44
2023-04-21T17:34:31.884Z,99747.63
2023-04-21T17:37:36.982Z,99748.84
2023-04-21T17:40:42.301Z,99753.22
2023-04-21T17:43:30.078Z,99757.19
2023-04-21T17:46:17.933Z,99761.97
2023-04-21T17:49:05.715Z,99752.44
2023-04-21T17:51:53.492Z,99765.94
2023-04-21T17:54:41.312Z,99767.94
2023-04-21T17:57:29.453Z,99767.53
2023-04-21T18:00:17.908Z,99774.69
2023-04-21T18:03:05.971Z,99777.06
2023-04-21T18:05:54.670Z,99767.50
2023-04-21T18:08:43.433Z,99734.94
2023-04-21T18:11:31.612Z,99753.59
2023-04-21T18:14:19.489Z,99761.56
2023-04-21T18:17:07.210Z,99777.84
2023-04-21T18:19:54.878Z,99750.00
2023-04-21T18:22:43.973Z,99779.44
2023-04-21T18:25:42.091Z,99776.66
2023-04-21T18:28:31.079Z,99788.97
2023-04-21T18:31:18.838Z,99769.03
2023-04-21T18:34:06.650Z,99768.22
2023-04-21T18:36:54.363Z,99775.72
2023-04-21T18:39:42.127Z,99800.81
2023-04-21T18:42:29.891Z,99780.94
2023-04-21T18:45:18.151Z,99784.91
2023-04-21T18:48:06.244Z,99834.22
2023-04-21T18:50:54.039Z,99811.94
2023-04-21T18:53:43.525Z,99774.53
2023-04-21T18:56:34.964Z,99822.22
2023-04-21T18:59:23.842Z,99806.31
2023-04-21T19:02:13.176Z,99820.19
2023-04-21T19:05:00.948Z,99827.75
2023-04-21T19:07:48.758Z,99842.88
2023-04-21T19:10:38.152Z,99824.97
2023-04-21T19:13:26.427Z,99837.72
2023-04-21T19:16:15.183Z,99842.47
2023-04-21T19:19:04.262Z,99824.56
2023-04-21T19:21:52.009Z,99792.34
2023-04-21T19:24:39.878Z,99823.72
2023-04-21T19:27:28.191Z,99837.19
2023-04-21T19:30:16.355Z,99814.88
2023-04-21T19:33:05.674Z,99829.59
2023-04-21T19:35:53.454Z,99835.56
2023-04-21T19:38:41.210Z,99857.06
2023-04-21T19:41:28.904Z,99816.47
2023-04-21T19:44:16.635Z,99836.78
2023-04-21T19:47:04.285Z,99825.13
2023-04-21T19:49:51.951Z,99859.81
2023-04-21T19:52:39.642Z,99849.75
2023-04-21T19:55:27.767Z,99852.78
2023-04-21T19:58:22.231Z,99869.84
2023-04-21T20:01:20.453Z,99873.34
2023-04-21T20:04:10.928Z,99877.63
2023-04-21T20:06:59.726Z,99881.94
2023-04-21T20:09:47.477Z,99843.28
2023-04-21T20:12:35.268Z,99865.78
2023-04-21T20:15:23.019Z,99833.94
2023-04-21T20:18:11.024Z,99897.84
2023-04-21T20:20:58.623Z,99806.56
2023-04-21T20:23:46.314Z,99871.97
2023-04-21T20:26:33.985Z,99884.69
2023-04-21T20:29:21.710Z,99899.00
2023-04-21T20:32:10.619Z,99900.16
2023-04-21T20:34:59.836Z,99871.09
2023-04-21T20:37:47.625Z,99892.22
2023-04-21T20:40:36.103Z,99831.31
2023-04-21T20:43:23.992Z,99876.75
2023-04-21T20:46:11.882Z,99873.41
2023-04-21T20:48:59.656Z,99890.88
2023-04-21T20:51:47.370Z,99874.09
2023-04-21T20:54:35.289Z,99898.34
2023-04-21T20:57:23.000Z,99883.50
2023-04-21T21:00:11.298Z,99906.72
2023-04-21T21:02:59.555Z,99898.38
2023-04-21T21:05:47.901Z,99864.34
2023-04-21T21:08:35.709Z,99885.47
2023-04-21T21:11:23.504Z,99833.63
2023-04-21T21:14:18.730Z,99899.84
2023-04-21T21:17:06.496Z,99902.56
2023-04-21T21:19:54.281Z,99890.16
2023-04-21T21:22:43.389Z,99903.66
2023-04-21T21:25:31.156Z,99911.94
2023-04-21T21:28:19.436Z,99877.56
2023-04-21T21:31:07.139Z,99915.59
2023-04-21T21:33:55.389Z,99913.47
2023-04-21T21:41:17.844Z,99885.84
2023-04-21T21:45:06.624Z,99863.00
2023-04-21T21:47:54.392Z,99851.59
2023-04-21T21:50:47.726Z,99904.59
2023-04-21T21:53:35.357Z,99915.34
2023-04-21T21:56:25.302Z,99892.16
2023-04-21T21:59:13.213Z,99915.16
2023-04-21T22:02:01.032Z,99902.72
2023-04-21T22:04:49.734Z,99919.44
2023-04-21T22:07:37.867Z,99878.69
2023-04-21T22:10:25.934Z,99916.84
2023-04-21T22:13:13.657Z,99923.31
2023-04-21T22:16:01.856Z,99910.66
2023-04-21T22:18:49.737Z,99920.63
2023-04-21T22:21:37.517Z,99881.53
2023-04-21T22:24:25.272Z,99882.94
2023-04-21T22:27:13.132Z,99910.47
2023-04-21T22:30:03.942Z,99883.72
2023-04-21T22:32:51.917Z,99909.88
2023-04-21T22:35:39.674Z,99897.94
2023-04-21T22:38:27.364Z,99908.66
2023-04-21T22:41:15.207Z,99909.88
2023-04-21T22:44:02.878Z,99897.13
2023-04-21T22:46:52.084Z,99916.66
2023-04-21T22:49:40.186Z,99896.78
2023-04-21T22:52:27.983Z,99902.81
2023-04-21T22:55:15.766Z,99900.88
2023-04-21T22:58:03.556Z,99877.38
2023-04-21T23:00:51.212Z,99906.38
2023-04-21T23:03:39.101Z,99903.94
2023-04-21T23:06:26.963Z,99910.66
2023-04-21T23:09:14.764Z,99910.97
2023-04-21T23:12:02.532Z,99910.25
2023-04-21T23:14:50.240Z,99885.53
2023-04-21T23:17:37.972Z,99913.94
2023-04-21T23:20:25.875Z,99898.00
2023-04-21T23:23:13.599Z,99911.94
2023-04-21T23:26:01.230Z,99851.72
2023-04-21T23:28:48.928Z,99903.19
2023-04-21T23:31:36.685Z,99900.69
2023-04-21T23:34:24.370Z,99899.84
2023-04-21T23:37:12.272Z,99893.19
2023-04-21T23:39:59.914Z,99853.31
2023-04-21T23:42:48.082Z,99908.28
2023-04-21T23:45:36.148Z,99908.78
2023-04-21T23:48:23.951Z,99893.75
2023-04-21T23:51:11.707Z,99886.00
2023-04-21T23:53:59.725Z,99908.53
2023-04-21T23:56:47.528Z,99911.97
2023-04-21T23:59:35.250Z,99882.78
